createdAt,value
2022-10-01T00:00:20.969Z,98590.22
2022-10-01T00:02:49.131Z,98587.91
2022-10-01T00:05:17.280Z,98596.97
2022-10-01T00:07:46.364Z,98602.28
2022-10-01T00:10:16.130Z,98597.56
2022-10-01T00:12:48.802Z,98604.53
2022-10-01T00:15:17.650Z,98603.22
2022-10-01T00:17:45.190Z,98611.63
2022-10-01T00:20:14.752Z,98598.00
2022-10-01T00:22:42.428Z,98594.63
2022-10-01T00:25:10.719Z,98591.41
2022-10-01T00:27:38.682Z,98578.50
2022-10-01T00:30:07.745Z,98581.16
2022-10-01T00:32:35.486Z,98576.44
2022-10-01T00:35:03.527Z,98574.84
2022-10-01T00:37:32.643Z,98587.88
2022-10-01T00:39:59.986Z,98585.72
2022-10-01T00:42:27.527Z,98564.38
2022-10-01T00:44:55.644Z,98579.72
2022-10-01T00:47:44.350Z,98579.72
2022-10-01T00:50:30.149Z,98581.50
2022-10-01T00:53:05.708Z,98576.19
2022-10-01T00:55:41.740Z,98585.50
2022-10-01T00:58:15.171Z,98588.00
2022-10-01T01:00:43.546Z,98586.94
2022-10-01T01:03:12.667Z,98590.09
2022-10-01T01:05:40.219Z,98579.53
2022-10-01T01:08:10.244Z,98577.72
2022-10-01T01:11:23.922Z,98571.22
2022-10-01T01:14:20.213Z,98574.81
2022-10-01T01:17:02.691Z,98573.13
2022-10-01T01:19:55.877Z,98567.97
2022-10-01T01:22:32.804Z,98580.81
2022-10-01T01:25:09.240Z,98580.47
2022-10-01T01:27:59.426Z,98575.78
2022-10-01T01:31:42.473Z,98573.03
2022-10-01T01:34:18.440Z,98580.69
2022-10-01T01:38:06.620Z,98563.94
2022-10-01T01:41:49.898Z,98562.78
2022-10-01T01:45:32.425Z,98551.00
2022-10-01T01:48:02.644Z,98538.03
2022-10-01T01:50:42.521Z,98533.91
2022-10-01T01:53:11.345Z,98534.66
2022-10-01T01:56:54.325Z,98531.06
2022-10-01T01:59:21.801Z,98532.13
2022-10-01T02:01:51.151Z,98526.69
2022-10-01T02:05:34.044Z,98522.50
2022-10-01T02:08:34.019Z,98513.47
2022-10-01T02:12:17.771Z,98506.69
2022-10-01T02:16:02.144Z,98511.03
2022-10-01T02:19:45.179Z,98503.47
2022-10-01T02:23:28.107Z,98506.94
2022-10-01T02:27:11.031Z,98515.53
2022-10-01T02:29:41.181Z,98508.41
2022-10-01T02:32:10.790Z,98502.63
2022-10-01T02:34:40.786Z,98505.41
2022-10-01T02:37:11.138Z,98515.34
2022-10-01T02:39:42.086Z,98503.84
2022-10-01T02:42:14.671Z,98504.72
2022-10-01T02:44:46.829Z,98504.25
2022-10-01T02:47:41.661Z,98502.94
2022-10-01T02:50:09.906Z,98508.69
2022-10-01T02:53:05.505Z,98506.78
2022-10-01T02:55:42.160Z,98508.63
2022-10-01T02:58:09.474Z,98508.09
2022-10-01T03:00:36.778Z,98498.63
2022-10-01T03:03:04.076Z,98490.72
2022-10-01T03:05:31.331Z,98492.19
2022-10-01T03:07:58.711Z,98503.34
2022-10-01T03:10:26.047Z,98502.00
2022-10-01T03:12:53.314Z,98499.75
2022-10-01T03:15:20.586Z,98496.06
2022-10-01T03:17:52.656Z,98499.56
2022-10-01T03:20:20.774Z,98496.88
2022-10-01T03:22:48.353Z,98502.78
2022-10-01T03:25:16.937Z,98500.41
2022-10-01T03:27:46.580Z,98497.66
2022-10-01T03:30:14.924Z,98486.06
2022-10-01T03:32:42.096Z,98474.09
2022-10-01T03:35:09.918Z,98469.03
2022-10-01T03:37:37.199Z,98474.09
2022-10-01T03:40:05.407Z,98464.84
2022-10-01T03:42:32.900Z,98475.72
2022-10-01T03:45:00.149Z,98480.47
2022-10-01T03:47:27.403Z,98478.97
2022-10-01T03:49:54.855Z,98474.63
2022-10-01T03:52:22.257Z,98466.94
2022-10-01T03:54:49.838Z,98465.69
2022-10-01T03:57:17.374Z,98461.19
2022-10-01T03:59:44.710Z,98456.00
2022-10-01T04:02:12.190Z,98456.97
2022-10-01T04:04:39.910Z,98453.22
2022-10-01T04:07:07.607Z,98447.09
2022-10-01T04:09:34.997Z,98447.84
2022-10-01T04:12:02.600Z,98455.31
2022-10-01T04:14:29.841Z,98461.34
2022-10-01T04:16:59.169Z,98443.03
2022-10-01T04:19:27.317Z,98441.34
2022-10-01T04:21:55.006Z,98444.72
2022-10-01T04:24:22.464Z,98439.66
2022-10-01T04:26:52.220Z,98450.91
2022-10-01T04:29:19.856Z,98452.13
2022-10-01T04:31:47.258Z,98449.09
2022-10-01T04:34:15.203Z,98442.22
2022-10-01T04:36:43.026Z,98438.88
2022-10-01T04:39:10.392Z,98430.06
2022-10-01T04:41:39.113Z,98417.03
2022-10-01T04:44:07.322Z,98422.91
2022-10-01T04:46:35.179Z,98430.28
2022-10-01T04:49:02.820Z,98444.38
2022-10-01T04:51:30.411Z,98453.31
2022-10-01T04:53:57.831Z,98446.34
2022-10-01T04:56:57.779Z,98443.97
2022-10-01T04:59:26.015Z,98435.91
2022-10-01T05:01:54.216Z,98429.81
2022-10-01T05:04:21.597Z,98436.13
2022-10-01T05:06:49.115Z,98441.75
2022-10-01T05:09:16.482Z,98428.47
2022-10-01T05:11:43.946Z,98436.09
2022-10-01T05:14:14.022Z,98439.63
2022-10-01T05:16:41.364Z,98436.19
2022-10-01T05:19:08.995Z,98432.63
2022-10-01T05:22:01.254Z,98434.53
2022-10-01T05:24:29.196Z,98437.28
2022-10-01T05:26:57.969Z,98439.97
2022-10-01T05:29:25.721Z,98432.91
2022-10-01T05:31:53.140Z,98439.91
2022-10-01T05:34:20.565Z,98438.28
2022-10-01T05:36:48.213Z,98439.53
2022-10-01T05:39:15.577Z,98436.06
2022-10-01T05:41:44.122Z,98439.78
2022-10-01T05:44:11.761Z,98423.56
2022-10-01T05:46:39.112Z,98431.03
2022-10-01T05:49:07.841Z,98431.97
2022-10-01T05:51:36.602Z,98424.94
2022-10-01T05:54:10.049Z,98423.78
2022-10-01T05:56:38.236Z,98428.53
2022-10-01T05:59:06.638Z,98415.25
2022-10-01T06:01:34.692Z,98413.97
2022-10-01T06:04:02.479Z,98397.72
2022-10-01T06:06:30.185Z,98404.97
2022-10-01T06:08:59.726Z,98400.66
2022-10-01T06:11:27.471Z,98397.66
2022-10-01T06:13:54.824Z,98393.19
2022-10-01T06:16:22.366Z,98396.34
2022-10-01T06:18:51.059Z,98375.50
2022-10-01T06:21:18.551Z,98369.56
2022-10-01T06:23:49.461Z,98362.72
2022-10-01T06:26:21.241Z,98359.63
2022-10-01T06:28:53.198Z,98358.84
2022-10-01T06:31:29.810Z,98350.13
2022-10-01T06:33:59.272Z,98350.84
2022-10-01T06:36:27.042Z,98347.16
2022-10-01T06:38:55.751Z,98348.19
2022-10-01T06:41:26.264Z,98357.03
2022-10-01T06:43:56.721Z,98344.94
2022-10-01T06:46:25.814Z,98340.66
2022-10-01T06:48:53.901Z,98343.63
2022-10-01T06:51:41.958Z,98339.44
2022-10-01T06:54:23.082Z,98337.22
2022-10-01T06:57:02.071Z,98340.69
2022-10-01T06:59:30.085Z,98338.31
2022-10-01T07:02:01.109Z,98338.69
2022-10-01T07:04:32.220Z,98342.81
2022-10-01T07:07:03.150Z,98342.91
2022-10-01T07:09:31.141Z,98343.22
2022-10-01T07:12:02.152Z,98349.25
2022-10-01T07:14:29.938Z,98343.88
2022-10-01T07:16:57.679Z,98340.34
2022-10-01T07:19:25.581Z,98345.34
2022-10-01T07:21:56.382Z,98354.59
2022-10-01T07:24:24.051Z,98354.13
2022-10-01T07:26:52.112Z,98345.31
2022-10-01T07:29:20.336Z,98353.78
2022-10-01T07:31:51.983Z,98353.09
2022-10-01T07:34:19.506Z,98352.41
2022-10-01T07:36:51.533Z,98347.03
2022-10-01T07:39:19.261Z,98337.41
2022-10-01T07:41:46.898Z,98323.31
2022-10-01T07:44:14.158Z,98325.31
2022-10-01T07:46:41.549Z,98322.56
2022-10-01T07:49:10.269Z,98332.28
2022-10-01T07:51:37.826Z,98329.88
2022-10-01T07:54:06.442Z,98319.31
2022-10-01T07:56:34.111Z,98328.28
2022-10-01T07:59:02.834Z,98333.09
2022-10-01T08:01:31.970Z,98339.28
2022-10-01T08:03:59.912Z,98334.03
2022-10-01T08:06:27.211Z,98338.81
2022-10-01T08:08:54.403Z,98328.97
2022-10-01T08:11:22.089Z,98342.31
2022-10-01T08:13:49.506Z,98335.84
2022-10-01T08:16:17.102Z,98333.06
2022-10-01T08:18:44.484Z,98327.47
2022-10-01T08:21:11.713Z,98328.97
2022-10-01T08:23:41.589Z,98329.94
2022-10-01T08:26:09.047Z,98332.44
2022-10-01T08:28:36.482Z,98332.19
2022-10-01T08:31:07.561Z,98341.63
2022-10-01T08:33:37.152Z,98339.75
2022-10-01T08:36:09.671Z,98332.28
2022-10-01T08:38:40.154Z,98349.25
2022-10-01T08:41:42.598Z,98349.19
2022-10-01T08:44:21.754Z,98349.50
2022-10-01T08:46:52.658Z,98357.16
2022-10-01T08:49:39.376Z,98345.34
2022-10-01T08:52:32.266Z,98345.28
2022-10-01T08:55:15.974Z,98355.25
2022-10-01T08:57:59.206Z,98347.75
2022-10-01T09:00:31.966Z,98347.72
2022-10-01T09:03:06.526Z,98352.78
2022-10-01T09:06:04.413Z,98348.84
2022-10-01T09:09:22.437Z,98360.31
2022-10-01T09:12:17.476Z,98348.38
2022-10-01T09:15:12.075Z,98351.19
2022-10-01T09:18:08.558Z,98367.03
2022-10-01T09:20:42.857Z,98360.13
2022-10-01T09:23:30.546Z,98358.97
2022-10-01T09:25:59.914Z,98355.63
2022-10-01T09:28:35.792Z,98358.44
2022-10-01T09:31:35.510Z,98362.63
2022-10-01T09:35:05.839Z,98356.22
2022-10-01T09:37:47.225Z,98364.03
2022-10-01T09:40:38.871Z,98366.53
2022-10-01T09:44:21.811Z,98372.94
2022-10-01T09:48:07.854Z,98372.69
2022-10-01T09:50:55.677Z,98382.47
2022-10-01T09:54:38.336Z,98389.13
2022-10-01T09:57:48.038Z,98390.25
2022-10-01T10:01:31.004Z,98378.28
2022-10-01T10:05:13.699Z,98382.44
2022-10-01T10:08:56.610Z,98375.50
2022-10-01T10:11:29.283Z,98380.50
2022-10-01T10:14:01.333Z,98383.84
2022-10-01T10:16:37.833Z,98395.31
2022-10-01T10:19:22.970Z,98394.16
2022-10-01T10:23:05.976Z,98405.63
2022-10-01T10:26:49.158Z,98395.88
2022-10-01T10:30:32.511Z,98398.09
2022-10-01T10:34:15.324Z,98402.53
2022-10-01T10:36:45.865Z,98405.31
2022-10-01T10:39:35.239Z,98416.22
2022-10-01T10:42:05.829Z,98399.47
2022-10-01T10:44:49.282Z,98401.41
2022-10-01T10:47:20.687Z,98404.22
2022-10-01T10:50:03.619Z,98399.75
2022-10-01T10:52:36.698Z,98391.88
2022-10-01T10:55:23.719Z,98400.06
2022-10-01T10:57:57.363Z,98389.19
2022-10-01T11:00:26.888Z,98390.78
2022-10-01T11:03:04.612Z,98380.88
2022-10-01T11:05:41.406Z,98384.41
2022-10-01T11:08:20.386Z,98380.94
2022-10-01T11:11:32.352Z,98383.72
2022-10-01T11:15:01.029Z,98383.13
2022-10-01T11:17:31.311Z,98382.28
2022-10-01T11:20:38.019Z,98367.44
2022-10-01T11:23:57.833Z,98379.97
2022-10-01T11:26:44.251Z,98375.41
2022-10-01T11:29:57.320Z,98381.81
2022-10-01T11:33:05.322Z,98381.22
2022-10-01T11:36:20.675Z,98378.78
2022-10-01T11:38:59.255Z,98382.75
2022-10-01T11:41:39.871Z,98386.38
2022-10-01T11:44:32.835Z,98393.28
2022-10-01T11:47:23.186Z,98396.63
2022-10-01T11:51:05.814Z,98399.22
2022-10-01T11:54:48.419Z,98411.53
2022-10-01T11:57:36.000Z,98394.81
2022-10-01T12:00:10.738Z,98418.44
2022-10-01T12:03:56.572Z,98418.44
2022-10-01T12:07:39.584Z,98418.06
2022-10-01T12:11:22.189Z,98425.22
2022-10-01T12:14:03.096Z,98420.09
2022-10-01T12:17:45.841Z,98429.38
2022-10-01T12:20:44.606Z,98431.19
2022-10-01T12:24:27.233Z,98430.09
2022-10-01T12:28:11.586Z,98429.38
2022-10-01T12:31:18.675Z,98433.34
2022-10-01T12:34:17.952Z,98444.44
2022-10-01T12:37:17.786Z,98440.78
2022-10-01T12:40:45.508Z,98443.53
2022-10-01T12:43:40.411Z,98440.28
2022-10-01T12:46:41.787Z,98462.88
2022-10-01T12:49:28.433Z,98457.47
2022-10-01T12:52:27.504Z,98460.06
2022-10-01T12:55:08.947Z,98455.22
2022-10-01T12:57:55.105Z,98460.66
2022-10-01T13:00:33.968Z,98458.22
2022-10-01T13:04:03.537Z,98454.94
2022-10-01T13:07:20.913Z,98465.69
2022-10-01T13:10:04.052Z,98471.06
2022-10-01T13:13:18.190Z,98466.13
2022-10-01T13:15:51.575Z,98466.50
2022-10-01T13:18:30.538Z,98456.00
2022-10-01T13:21:34.502Z,98468.56
2022-10-01T13:24:28.651Z,98467.44
2022-10-01T13:27:37.873Z,98456.09
2022-10-01T13:30:24.376Z,98453.25
2022-10-01T13:33:00.961Z,98460.41
2022-10-01T13:35:39.905Z,98465.78
2022-10-01T13:38:30.313Z,98456.69
2022-10-01T13:41:28.787Z,98453.25
2022-10-01T13:44:27.654Z,98450.28
2022-10-01T13:47:07.903Z,98448.16
2022-10-01T13:49:37.966Z,98454.72
2022-10-01T13:52:06.141Z,98459.00
2022-10-01T13:54:54.622Z,98459.50
2022-10-01T13:57:36.161Z,98466.63
2022-10-01T14:01:23.021Z,98462.72
2022-10-01T14:04:18.794Z,98463.03
2022-10-01T14:08:01.356Z,98459.50
2022-10-01T14:12:03.242Z,98461.09
2022-10-01T14:15:02.095Z,98462.06
2022-10-01T14:18:45.099Z,98454.78
2022-10-01T14:21:41.548Z,98448.63
2022-10-01T14:24:45.719Z,98455.56
2022-10-01T14:28:28.446Z,98455.69
2022-10-01T14:32:11.307Z,98449.13
2022-10-01T14:34:54.198Z,98448.31
2022-10-01T14:37:22.632Z,98445.88
2022-10-01T14:41:05.205Z,98449.91
2022-10-01T14:44:48.098Z,98443.09
2022-10-01T14:48:30.661Z,98455.03
2022-10-01T14:51:04.979Z,98450.69
2022-10-01T14:53:38.446Z,98446.38
2022-10-01T14:56:13.046Z,98445.88
2022-10-01T14:59:04.091Z,98439.47
2022-10-01T15:01:31.565Z,98443.69
2022-10-01T15:03:58.903Z,98461.03
2022-10-01T15:06:29.897Z,98457.94
2022-10-01T15:09:15.105Z,98469.38
2022-10-01T15:11:46.598Z,98464.16
2022-10-01T15:14:24.949Z,98466.06
2022-10-01T15:16:52.812Z,98469.59
2022-10-01T15:19:23.486Z,98478.78
2022-10-01T15:22:01.085Z,98472.13
2022-10-01T15:24:46.384Z,98474.38
2022-10-01T15:27:20.066Z,98483.38
2022-10-01T15:29:56.444Z,98492.03
2022-10-01T15:32:28.017Z,98490.22
2022-10-01T15:35:02.137Z,98494.03
2022-10-01T15:37:36.797Z,98481.13
2022-10-01T15:40:30.178Z,98482.63
2022-10-01T15:43:27.722Z,98476.38
2022-10-01T15:46:07.638Z,98476.13
2022-10-01T15:48:35.025Z,98483.91
2022-10-01T15:51:20.376Z,98496.69
2022-10-01T15:53:47.816Z,98502.50
2022-10-01T15:56:23.694Z,98505.47
2022-10-01T15:59:15.851Z,98497.81
2022-10-01T16:01:43.537Z,98511.63
2022-10-01T16:04:17.030Z,98514.19
2022-10-01T16:06:51.986Z,98525.19
2022-10-01T18:03:07.455Z,98677.66
2022-10-01T18:05:35.092Z,98684.53
2022-10-01T18:08:08.759Z,98682.50
2022-10-01T18:10:37.133Z,98688.53
2022-10-01T18:13:04.731Z,98696.72
2022-10-01T18:15:32.382Z,98696.66
2022-10-01T18:18:58.760Z,98697.63
2022-10-01T18:20:47.914Z,98699.59
2022-10-01T18:23:15.299Z,98707.81
2022-10-01T18:25:42.870Z,98703.03
2022-10-01T18:28:10.371Z,98719.66
2022-10-01T18:30:40.413Z,98719.03
2022-10-01T18:33:13.004Z,98712.00
2022-10-01T18:35:44.329Z,98711.94
2022-10-01T18:38:32.382Z,98722.41
2022-10-01T18:41:11.112Z,98722.94
2022-10-01T18:43:41.525Z,98740.41
2022-10-01T18:46:45.050Z,98741.50
2022-10-01T18:49:58.050Z,98753.81
2022-10-01T18:53:04.120Z,98760.81
2022-10-01T18:56:24.229Z,98775.38
2022-10-01T18:59:24.593Z,98778.47
2022-10-01T19:02:40.897Z,98796.66
2022-10-01T19:06:10.164Z,98791.41
2022-10-01T19:09:27.255Z,98798.69
2022-10-01T19:13:03.882Z,98803.38
2022-10-01T19:16:27.815Z,98801.47
2022-10-01T19:19:25.900Z,98815.22
2022-10-01T19:22:21.757Z,98809.91
2022-10-01T19:25:54.876Z,98819.97
2022-10-01T19:29:04.850Z,98816.56
2022-10-01T19:31:55.068Z,98830.28
2022-10-01T19:34:50.833Z,98830.88
2022-10-01T19:37:50.419Z,98828.34
2022-10-01T19:40:28.461Z,98840.84
2022-10-01T19:43:42.164Z,98848.94
2022-10-01T19:46:31.308Z,98852.38
2022-10-01T19:49:36.432Z,98855.72
2022-10-01T19:52:18.736Z,98865.44
2022-10-01T19:55:03.438Z,98864.53
2022-10-01T19:57:45.253Z,98871.09
2022-10-01T20:00:21.847Z,98873.53
2022-10-01T20:03:26.848Z,98864.66
2022-10-01T20:06:25.554Z,98871.66
2022-10-01T20:09:28.601Z,98868.63
2022-10-01T20:12:38.476Z,98881.44
2022-10-01T20:15:55.602Z,98886.38
2022-10-01T20:18:59.696Z,98884.69
2022-10-01T20:21:59.917Z,98894.22
2022-10-01T20:25:05.244Z,98890.59
2022-10-01T20:27:50.375Z,98888.50
2022-10-01T20:30:26.209Z,98903.50
2022-10-01T20:33:35.379Z,98917.56
2022-10-01T20:36:44.272Z,98913.03
2022-10-01T20:39:44.423Z,98920.78
2022-10-01T20:42:25.758Z,98920.00
2022-10-01T20:44:56.015Z,98916.66
2022-10-01T20:47:42.759Z,98923.91
2022-10-01T20:50:22.954Z,98926.72
2022-10-01T20:53:27.325Z,98934.81
2022-10-01T20:56:15.670Z,98939.06
2022-10-01T20:59:05.098Z,98936.25
2022-10-01T21:01:46.350Z,98942.47
2022-10-01T21:04:23.997Z,98944.50
2022-10-01T21:07:15.322Z,98948.25
2022-10-01T21:09:53.984Z,98947.13
2022-10-01T21:12:40.712Z,98949.19
2022-10-01T21:15:17.236Z,98954.22
2022-10-01T21:18:27.938Z,98948.41
2022-10-01T21:21:55.170Z,98953.66
2022-10-01T21:25:02.542Z,98974.13
2022-10-01T21:28:28.650Z,98973.81
2022-10-01T21:32:19.487Z,98981.69
2022-10-01T21:35:04.035Z,98983.00
2022-10-01T21:37:41.709Z,98986.91
2022-10-01T21:41:06.046Z,98983.59
2022-10-01T21:44:19.963Z,98991.91
2022-10-01T21:47:34.419Z,99004.31
2022-10-01T21:50:12.261Z,99013.22
2022-10-01T21:53:43.276Z,99017.88
2022-10-01T21:56:50.769Z,99021.56
2022-10-01T22:00:19.321Z,99036.00
2022-10-01T22:03:32.195Z,99020.78
2022-10-01T22:06:17.159Z,99037.03
2022-10-01T22:09:33.211Z,99033.97
2022-10-01T22:12:06.030Z,99020.44
2022-10-01T22:14:33.731Z,99035.13
2022-10-01T22:17:15.690Z,99037.00
2022-10-01T22:19:54.287Z,99045.13
2022-10-01T22:22:38.182Z,99066.28
2022-10-01T22:25:08.336Z,99069.88
2022-10-01T22:27:54.296Z,99064.66
2022-10-01T22:30:28.755Z,99083.34
2022-10-01T22:33:31.219Z,99068.41
2022-10-01T22:36:11.904Z,99067.63
2022-10-01T22:38:54.333Z,99061.63
2022-10-01T22:42:12.259Z,99067.69
2022-10-01T22:44:39.645Z,99075.06
2022-10-01T22:47:55.982Z,99074.53
2022-10-01T22:50:44.769Z,99085.13
2022-10-01T22:54:07.096Z,99076.41
2022-10-01T22:56:53.811Z,99094.00
2022-10-01T22:59:59.950Z,99091.00
2022-10-01T23:02:40.995Z,99093.84
2022-10-01T23:05:40.786Z,99088.25
2022-10-01T23:08:34.460Z,99092.41
2022-10-01T23:11:27.290Z,99088.50
2022-10-01T23:14:19.191Z,99092.81
2022-10-01T23:17:34.318Z,99091.53
2022-10-01T23:20:47.358Z,99095.94
2022-10-01T23:23:33.596Z,99104.03
2022-10-01T23:26:21.058Z,99100.66
2022-10-01T23:29:11.666Z,99100.41
2022-10-01T23:32:40.983Z,99101.78
2022-10-01T23:35:20.083Z,99102.19
2022-10-01T23:38:51.471Z,99105.13
2022-10-01T23:41:51.321Z,99116.94
2022-10-01T23:44:41.334Z,99127.38
2022-10-01T23:47:32.228Z,99132.97
2022-10-01T23:50:04.552Z,99136.31
2022-10-01T23:52:50.656Z,99135.03
2022-10-01T23:55:56.590Z,99131.38
2022-10-01T23:58:29.006Z,99140.59
